CheckWX is a tool to help pilots better visualize weather data.  It is not intended as a substitute for an official pre-flight weather briefing.

16:15:16 UTC

ENSE METAR
Snorre A Oilp
Snorre A Oilp, Norway
Current

25 mins ago

ENSE 051550Z AUTO 17038KT 7000NDV BKN230/// 09/06 Q1012 W///S5
Observed
Apr-5 @ 15:50 UTC
Wind
  • 170° at 38 KTS
Visibility
Cloud Levels
  • Broken at 23,000' AGL
Temperature
C / 48°F
Dewpoint
C / 43°F
Humidity
82%
Altimeter
29.88" Hg
Pressure
1011.92 hPa
Previous

55 mins ago

ENSE 051520Z AUTO 17038KT 9000NDV NCD 09/06 Q1012 W///S5
Observed
Apr-5 @ 15:20 UTC
Wind
  • 170° at 38 KTS
Visibility
Cloud Levels
  • Clear skies
Temperature
C / 48°F
Dewpoint
C / 43°F
Humidity
82%
Altimeter
29.88" Hg
Pressure
1011.92 hPa
Previous

1 hour ago

ENSE 051450Z AUTO 17037KT 9999NDV NCD 10/05 Q1012 W///S5
Observed
Apr-5 @ 14:50 UTC
Wind
  • 170° at 37 KTS
Visibility
Cloud Levels
  • Clear skies
Temperature
10°C / 50°F
Dewpoint
C / 41°F
Humidity
71%
Altimeter
29.88" Hg
Pressure
1011.92 hPa